sensor_id;sensor_type;location;lat;lon;timestamp;pressure;altitude;pressure_sealevel;temperature;humidity
68634;BME280;55625;47.072;22.192;2023-01-10T00:01:36;98538.69;;;7.35;100.00
68634;BME280;55625;47.072;22.192;2023-01-10T00:04:02;98535.06;;;7.35;100.00
68634;BME280;55625;47.072;22.192;2023-01-10T00:06:28;98531.78;;;7.36;100.00
68634;BME280;55625;47.072;22.192;2023-01-10T00:08:54;98528.19;;;7.36;100.00
68634;BME280;55625;47.072;22.192;2023-01-10T00:11:22;98510.09;;;7.33;100.00
68634;BME280;55625;47.072;22.192;2023-01-10T00:14:07;98507.44;;;7.30;100.00
68634;BME280;55625;47.072;22.192;2023-01-10T00:16:33;98510.06;;;7.24;100.00
68634;BME280;55625;47.072;22.192;2023-01-10T00:19:01;98501.09;;;7.16;100.00
68634;BME280;55625;47.072;22.192;2023-01-10T00:21:27;98494.78;;;7.12;100.00
68634;BME280;55625;47.072;22.192;2023-01-10T00:23:53;98494.78;;;7.12;100.00
68634;BME280;55625;47.072;22.192;2023-01-10T00:26:19;98478.78;;;7.09;100.00
68634;BME280;55625;47.072;22.192;2023-01-10T00:28:44;98480.50;;;7.07;100.00
68634;BME280;55625;47.072;22.192;2023-01-10T00:31:10;98472.81;;;7.07;100.00
68634;BME280;55625;47.072;22.192;2023-01-10T00:33:38;98485.34;;;7.06;100.00
68634;BME280;55625;47.072;22.192;2023-01-10T00:36:06;98476.91;;;7.06;100.00
68634;BME280;55625;47.072;22.192;2023-01-10T00:38:34;98471.38;;;7.03;100.00
68634;BME280;55625;47.072;22.192;2023-01-10T00:41:01;98477.47;;;7.01;100.00
68634;BME280;55625;47.072;22.192;2023-01-10T00:43:27;98469.78;;;7.02;100.00
68634;BME280;55625;47.072;22.192;2023-01-10T00:46:12;98481.06;;;7.02;100.00
68634;BME280;55625;47.072;22.192;2023-01-10T00:48:38;98469.78;;;7.02;100.00
68634;BME280;55625;47.072;22.192;2023-01-10T00:51:04;98472.50;;;7.05;100.00
68634;BME280;55625;47.072;22.192;2023-01-10T00:53:30;98469.69;;;7.05;100.00
68634;BME280;55625;47.072;22.192;2023-01-10T00:55:56;98462.91;;;7.03;100.00
68634;BME280;55625;47.072;22.192;2023-01-10T00:58:22;98473.41;;;7.02;100.00
68634;BME280;55625;47.072;22.192;2023-01-10T01:00:49;98453.00;;;6.98;100.00
68634;BME280;55625;47.072;22.192;2023-01-10T01:03:17;98461.78;;;7.00;100.00
68634;BME280;55625;47.072;22.192;2023-01-10T01:05:45;98471.03;;;7.01;100.00
68634;BME280;55625;47.072;22.192;2023-01-10T01:08:14;98472.94;;;7.04;100.00
68634;BME280;55625;47.072;22.192;2023-01-10T01:10:40;98465.94;;;7.08;100.00
68634;BME280;55625;47.072;22.192;2023-01-10T01:13:16;98476.91;;;7.06;100.00
68634;BME280;55625;47.072;22.192;2023-01-10T01:15:43;98473.16;;;7.09;100.00
68634;BME280;55625;47.072;22.192;2023-01-10T01:18:12;98465.63;;;7.06;100.00
68634;BME280;55625;47.072;22.192;2023-01-10T01:20:40;98464.94;;;7.02;100.00
68634;BME280;55625;47.072;22.192;2023-01-10T01:23:06;98463.25;;;7.05;100.00
68634;BME280;55625;47.072;22.192;2023-01-10T01:25:32;98457.25;;;7.03;100.00
68634;BME280;55625;47.072;22.192;2023-01-10T01:27:58;98464.16;;;7.02;100.00
68634;BME280;55625;47.072;22.192;2023-01-10T01:30:24;98456.47;;;7.02;100.00
68634;BME280;55625;47.072;22.192;2023-01-10T01:32:50;98457.41;;;6.99;100.00
68634;BME280;55625;47.072;22.192;2023-01-10T01:35:16;98437.19;;;7.01;100.00
68634;BME280;55625;47.072;22.192;2023-01-10T01:37:43;98448.41;;;7.13;100.00
68634;BME280;55625;47.072;22.192;2023-01-10T01:40:19;98453.44;;;7.19;100.00
68634;BME280;55625;47.072;22.192;2023-01-10T01:42:46;98444.94;;;7.09;100.00
68634;BME280;55625;47.072;22.192;2023-01-10T01:48:06;98446.50;;;7.10;100.00
68634;BME280;55625;47.072;22.192;2023-01-10T01:50:57;98451.50;;;7.06;100.00
68634;BME280;55625;47.072;22.192;2023-01-10T01:53:49;98462.78;;;7.06;100.00
68634;BME280;55625;47.072;22.192;2023-01-10T01:56:43;98453.88;;;7.08;100.00
68634;BME280;55625;47.072;22.192;2023-01-10T01:59:17;98463.44;;;7.10;100.00
68634;BME280;55625;47.072;22.192;2023-01-10T02:01:48;98465.81;;;7.12;100.00
68634;BME280;55625;47.072;22.192;2023-01-10T02:04:23;98452.16;;;7.10;100.00
68634;BME280;55625;47.072;22.192;2023-01-10T02:06:52;98442.72;;;7.04;100.00
68634;BME280;55625;47.072;22.192;2023-01-10T02:09:33;98458.06;;;7.03;100.00
68634;BME280;55625;47.072;22.192;2023-01-10T02:12:02;98457.25;;;7.03;100.00
68634;BME280;55625;47.072;22.192;2023-01-10T02:14:30;98450.03;;;7.02;100.00
68634;BME280;55625;47.072;22.192;2023-01-10T02:16:56;98440.47;;;6.99;100.00
68634;BME280;55625;47.072;22.192;2023-01-10T02:19:55;98440.47;;;6.99;100.00
68634;BME280;55625;47.072;22.192;2023-01-10T02:32:01;98437.09;;;7.04;100.00
68634;BME280;55625;47.072;22.192;2023-01-10T02:37:21;98437.72;;;7.08;100.00
68634;BME280;55625;47.072;22.192;2023-01-10T02:45:35;98444.19;;;7.18;100.00
68634;BME280;55625;47.072;22.192;2023-01-10T02:48:03;98444.38;;;7.24;100.00
68634;BME280;55625;47.072;22.192;2023-01-10T02:53:01;98447.53;;;7.26;100.00
68634;BME280;55625;47.072;22.192;2023-01-10T03:02:14;98446.78;;;7.34;100.00
68634;BME280;55625;47.072;22.192;2023-01-10T03:05:14;98451.31;;;7.32;100.00
68634;BME280;55625;47.072;22.192;2023-01-10T03:11:05;98460.25;;;7.30;100.00
68634;BME280;55625;47.072;22.192;2023-01-10T03:13:56;98457.09;;;7.28;100.00
68634;BME280;55625;47.072;22.192;2023-01-10T03:16:27;98454.41;;;7.25;100.00
68634;BME280;55625;47.072;22.192;2023-01-10T03:19:06;98463.34;;;7.23;100.00
68634;BME280;55625;47.072;22.192;2023-01-10T03:21:33;98462.88;;;7.25;100.00
68634;BME280;55625;47.072;22.192;2023-01-10T03:24:14;98459.09;;;7.19;100.00
68634;BME280;55625;47.072;22.192;2023-01-10T03:27:32;98451.88;;;7.18;100.00
68634;BME280;55625;47.072;22.192;2023-01-10T03:32:39;98457.19;;;7.15;100.00
68634;BME280;55625;47.072;22.192;2023-01-10T03:35:07;98448.72;;;7.15;100.00
68634;BME280;55625;47.072;22.192;2023-01-10T03:40:20;98460.03;;;7.15;100.00
68634;BME280;55625;47.072;22.192;2023-01-10T03:43:05;98453.13;;;7.16;100.00
68634;BME280;55625;47.072;22.192;2023-01-10T03:46:10;98460.81;;;7.16;100.00
68634;BME280;55625;47.072;22.192;2023-01-10T03:48:41;98450.31;;;7.16;100.00
68634;BME280;55625;47.072;22.192;2023-01-10T03:51:11;98452.66;;;7.18;100.00
68634;BME280;55625;47.072;22.192;2023-01-10T03:53:39;98460.66;;;7.20;100.00
68634;BME280;55625;47.072;22.192;2023-01-10T03:56:06;98464.59;;;7.22;100.00
68634;BME280;55625;47.072;22.192;2023-01-10T03:58:32;98475.09;;;7.22;100.00
68634;BME280;55625;47.072;22.192;2023-01-10T04:00:58;98472.13;;;7.25;100.00
68634;BME280;55625;47.072;22.192;2023-01-10T04:03:24;98476.53;;;7.26;100.00
68634;BME280;55625;47.072;22.192;2023-01-10T04:05:50;98470.88;;;7.26;100.00
68634;BME280;55625;47.072;22.192;2023-01-10T04:08:16;98478.88;;;7.28;100.00
68634;BME280;55625;47.072;22.192;2023-01-10T04:10:41;98476.53;;;7.26;100.00
68634;BME280;55625;47.072;22.192;2023-01-10T04:13:07;98484.53;;;7.28;100.00
68634;BME280;55625;47.072;22.192;2023-01-10T04:15:33;98498.63;;;7.28;100.00
68634;BME280;55625;47.072;22.192;2023-01-10T04:17:59;98506.19;;;7.31;100.00
68634;BME280;55625;47.072;22.192;2023-01-10T04:20:24;98494.09;;;7.30;100.00
68634;BME280;55625;47.072;22.192;2023-01-10T04:22:53;98497.38;;;7.29;100.00
68634;BME280;55625;47.072;22.192;2023-01-10T04:25:21;98515.56;;;7.28;100.00
68634;BME280;55625;47.072;22.192;2023-01-10T04:27:51;98505.53;;;7.27;100.00
68634;BME280;55625;47.072;22.192;2023-01-10T04:30:18;98511.31;;;7.23;100.00
68634;BME280;55625;47.072;22.192;2023-01-10T04:32:44;98521.81;;;7.23;100.00
68634;BME280;55625;47.072;22.192;2023-01-10T04:35:11;98529.50;;;7.22;100.00
68634;BME280;55625;47.072;22.192;2023-01-10T04:37:37;98536.38;;;7.21;100.00
68634;BME280;55625;47.072;22.192;2023-01-10T04:40:03;98531.66;;;7.18;100.00
68634;BME280;55625;47.072;22.192;2023-01-10T04:42:29;98530.56;;;7.15;100.00
68634;BME280;55625;47.072;22.192;2023-01-10T04:44:55;98531.81;;;7.14;100.00
68634;BME280;55625;47.072;22.192;2023-01-10T04:47:21;98524.59;;;7.13;100.00
68634;BME280;55625;47.072;22.192;2023-01-10T04:49:47;98531.00;;;7.14;100.00
68634;BME280;55625;47.072;22.192;2023-01-10T04:52:12;98538.69;;;7.13;100.00
68634;BME280;55625;47.072;22.192;2023-01-10T04:54:38;98548.72;;;7.14;100.00
68634;BME280;55625;47.072;22.192;2023-01-10T04:57:04;98552.47;;;7.11;100.00
68634;BME280;55625;47.072;22.192;2023-01-10T04:59:31;98556.22;;;7.08;100.00
68634;BME280;55625;47.072;22.192;2023-01-10T05:01:57;98561.53;;;7.06;100.00
68634;BME280;55625;47.072;22.192;2023-01-10T05:04:24;98560.38;;;7.04;100.00
68634;BME280;55625;47.072;22.192;2023-01-10T05:06:50;98561.63;;;7.03;100.00
68634;BME280;55625;47.072;22.192;2023-01-10T05:09:15;98569.31;;;7.02;100.00
68634;BME280;55625;47.072;22.192;2023-01-10T05:11:41;98566.03;;;7.04;100.00
68634;BME280;55625;47.072;22.192;2023-01-10T05:14:07;98573.25;;;7.05;100.00
68634;BME280;55625;47.072;22.192;2023-01-10T05:16:33;98567.94;;;7.07;100.00
68634;BME280;55625;47.072;22.192;2023-01-10T05:18:59;98563.44;;;7.09;100.00
68634;BME280;55625;47.072;22.192;2023-01-10T05:21:25;98572.69;;;7.10;100.00
68634;BME280;55625;47.072;22.192;2023-01-10T05:23:51;98581.13;;;7.10;100.00
68634;BME280;55625;47.072;22.192;2023-01-10T05:26:20;98588.47;;;7.07;100.00
68634;BME280;55625;47.072;22.192;2023-01-10T05:28:47;98586.91;;;7.06;100.00
68634;BME280;55625;47.072;22.192;2023-01-10T05:31:15;98592.22;;;7.04;100.00
68634;BME280;55625;47.072;22.192;2023-01-10T05:33:47;98591.41;;;7.04;100.00
68634;BME280;55625;47.072;22.192;2023-01-10T05:36:14;98592.56;;;7.06;100.00
68634;BME280;55625;47.072;22.192;2023-01-10T05:38:40;98602.59;;;7.07;100.00
68634;BME280;55625;47.072;22.192;2023-01-10T05:41:06;98600.56;;;7.08;100.00
68634;BME280;55625;47.072;22.192;2023-01-10T05:43:31;98609.34;;;7.10;100.00
68634;BME280;55625;47.072;22.192;2023-01-10T05:45:57;98607.44;;;7.07;100.00
68634;BME280;55625;47.072;22.192;2023-01-10T05:48:23;98609.47;;;7.06;100.00
68634;BME280;55625;47.072;22.192;2023-01-10T05:50:50;98616.78;;;7.04;100.00
68634;BME280;55625;47.072;22.192;2023-01-10T05:53:16;98611.63;;;7.02;100.00
68634;BME280;55625;47.072;22.192;2023-01-10T05:55:42;98616.00;;;7.03;100.00
68634;BME280;55625;47.072;22.192;2023-01-10T05:58:08;98615.69;;;7.01;100.00
68634;BME280;55625;47.072;22.192;2023-01-10T06:00:36;98621.78;;;7.00;100.00
68634;BME280;55625;47.072;22.192;2023-01-10T06:03:04;98628.91;;;7.04;100.00
68634;BME280;55625;47.072;22.192;2023-01-10T06:05:30;98621.22;;;7.05;100.00
68634;BME280;55625;47.072;22.192;2023-01-10T06:07:56;98623.69;;;7.03;100.00
68634;BME280;55625;47.072;22.192;2023-01-10T06:10:22;98624.13;;;7.01;100.00
68634;BME280;55625;47.072;22.192;2023-01-10T06:12:47;98628.44;;;7.06;100.00
68634;BME280;55625;47.072;22.192;2023-01-10T06:15:14;98626.84;;;7.05;100.00
68634;BME280;55625;47.072;22.192;2023-01-10T06:17:41;98628.91;;;7.04;100.00
68634;BME280;55625;47.072;22.192;2023-01-10T06:20:10;98624.47;;;7.03;100.00
68634;BME280;55625;47.072;22.192;2023-01-10T06:22:39;98619.19;;;7.05;100.00
68634;BME280;55625;47.072;22.192;2023-01-10T06:25:08;98624.69;;;7.09;100.00
68634;BME280;55625;47.072;22.192;2023-01-10T06:27:34;98617.03;;;7.09;100.00
68634;BME280;55625;47.072;22.192;2023-01-10T06:29:59;98627.06;;;7.10;100.00
68634;BME280;55625;47.072;22.192;2023-01-10T06:32:26;98627.06;;;7.10;100.00
68634;BME280;55625;47.072;22.192;2023-01-10T06:34:52;98627.84;;;7.11;100.00
68634;BME280;55625;47.072;22.192;2023-01-10T06:37:18;98641.50;;;7.12;100.00
68634;BME280;55625;47.072;22.192;2023-01-10T06:39:44;98635.84;;;7.12;100.00
68634;BME280;55625;47.072;22.192;2023-01-10T06:42:11;98647.78;;;7.16;100.00
68634;BME280;55625;47.072;22.192;2023-01-10T06:44:37;98653.44;;;7.16;100.00
68634;BME280;55625;47.072;22.192;2023-01-10T06:47:03;98663.94;;;7.16;100.00
68634;BME280;55625;47.072;22.192;2023-01-10T06:49:29;98663.16;;;7.15;100.00
68634;BME280;55625;47.072;22.192;2023-01-10T06:51:55;98667.75;;;7.22;100.00
68634;BME280;55625;47.072;22.192;2023-01-10T06:54:20;98678.78;;;7.29;100.00
68634;BME280;55625;47.072;22.192;2023-01-10T06:56:47;98675.63;;;7.27;100.00
68634;BME280;55625;47.072;22.192;2023-01-10T06:59:13;98672.94;;;7.24;100.00
68634;BME280;55625;47.072;22.192;2023-01-10T07:01:39;98677.78;;;7.23;100.00
68634;BME280;55625;47.072;22.192;2023-01-10T07:04:05;98690.31;;;7.22;100.00
68634;BME280;55625;47.072;22.192;2023-01-10T07:06:33;98692.69;;;7.24;100.00
68634;BME280;55625;47.072;22.192;2023-01-10T07:09:01;98694.72;;;7.23;100.00
68634;BME280;55625;47.072;22.192;2023-01-10T07:11:27;98694.59;;;7.27;100.00
68634;BME280;55625;47.072;22.192;2023-01-10T07:13:53;98686.78;;;7.31;100.00
68634;BME280;55625;47.072;22.192;2023-01-10T07:16:19;98687.03;;;7.24;100.00
68634;BME280;55625;47.072;22.192;2023-01-10T07:18:45;98688.88;;;7.18;100.00
68634;BME280;55625;47.072;22.192;2023-01-10T07:21:11;98694.19;;;7.15;100.00
68634;BME280;55625;47.072;22.192;2023-01-10T07:23:38;98693.84;;;7.13;100.00
68634;BME280;55625;47.072;22.192;2023-01-10T07:26:09;98693.19;;;7.09;100.00
68634;BME280;55625;47.072;22.192;2023-01-10T07:28:36;98693.19;;;7.09;100.00
68634;BME280;55625;47.072;22.192;2023-01-10T07:31:04;98697.91;;;7.12;100.00
68634;BME280;55625;47.072;22.192;2023-01-10T07:33:31;98700.41;;;7.10;100.00
68634;BME280;55625;47.072;22.192;2023-01-10T07:35:58;98710.78;;;7.13;100.00
68634;BME280;55625;47.072;22.192;2023-01-10T07:38:24;98720.50;;;7.12;100.00
68634;BME280;55625;47.072;22.192;2023-01-10T07:40:50;98723.66;;;7.14;100.00
68634;BME280;55625;47.072;22.192;2023-01-10T07:43:16;98722.41;;;7.15;100.00
68634;BME280;55625;47.072;22.192;2023-01-10T07:45:42;98722.06;;;7.13;100.00
68634;BME280;55625;47.072;22.192;2023-01-10T07:48:08;98716.31;;;7.17;100.00
68634;BME280;55625;47.072;22.192;2023-01-10T07:50:35;98706.72;;;7.14;100.00
68634;BME280;55625;47.072;22.192;2023-01-10T07:53:04;98698.25;;;7.14;100.00
68634;BME280;55625;47.072;22.192;2023-01-10T07:55:31;98711.00;;;7.19;100.00
68634;BME280;55625;47.072;22.192;2023-01-10T07:57:59;98716.50;;;7.23;100.00
68634;BME280;55625;47.072;22.192;2023-01-10T08:00:25;98721.38;;;7.22;100.00
68634;BME280;55625;47.072;22.192;2023-01-10T08:02:55;98734.34;;;7.20;100.00
68634;BME280;55625;47.072;22.192;2023-01-10T08:05:23;98750.50;;;7.19;100.00
68634;BME280;55625;47.072;22.192;2023-01-10T08:07:49;98758.50;;;7.21;100.00
68634;BME280;55625;47.072;22.192;2023-01-10T08:10:15;98768.53;;;7.22;100.00
68634;BME280;55625;47.072;22.192;2023-01-10T08:12:41;98778.25;;;7.21;100.00
68634;BME280;55625;47.072;22.192;2023-01-10T08:15:08;98782.31;;;7.20;100.00
68634;BME280;55625;47.072;22.192;2023-01-10T08:17:34;98780.75;;;7.19;100.00
68634;BME280;55625;47.072;22.192;2023-01-10T08:20:00;98787.16;;;7.19;100.00
68634;BME280;55625;47.072;22.192;2023-01-10T08:22:26;98797.53;;;7.22;100.00
68634;BME280;55625;47.072;22.192;2023-01-10T08:24:52;98810.06;;;7.21;100.00
68634;BME280;55625;47.072;22.192;2023-01-10T08:27:18;98816.97;;;7.20;99.74
68634;BME280;55625;47.072;22.192;2023-01-10T08:29:44;98833.31;;;7.25;99.30
68634;BME280;55625;47.072;22.192;2023-01-10T08:32:10;98831.28;;;7.26;99.31
68634;BME280;55625;47.072;22.192;2023-01-10T08:34:36;98840.66;;;7.23;99.65
68634;BME280;55625;47.072;22.192;2023-01-10T08:37:02;98859.63;;;7.22;99.77
68634;BME280;55625;47.072;22.192;2023-01-10T08:39:28;98873.72;;;7.22;100.00
68634;BME280;55625;47.072;22.192;2023-01-10T08:41:55;98878.25;;;7.20;100.00
68634;BME280;55625;47.072;22.192;2023-01-10T08:44:22;98875.09;;;7.18;100.00
68634;BME280;55625;47.072;22.192;2023-01-10T08:46:48;98868.66;;;7.17;100.00
68634;BME280;55625;47.072;22.192;2023-01-10T08:49:14;98872.28;;;7.18;100.00
68634;BME280;55625;47.072;22.192;2023-01-10T08:51:40;98880.75;;;7.18;100.00
68634;BME280;55625;47.072;22.192;2023-01-10T08:54:06;98886.72;;;7.20;100.00
68634;BME280;55625;47.072;22.192;2023-01-10T08:56:32;98891.22;;;7.17;100.00
68634;BME280;55625;47.072;22.192;2023-01-10T08:58:57;98888.88;;;7.15;100.00
68634;BME280;55625;47.072;22.192;2023-01-10T09:01:23;98896.19;;;7.13;100.00
68634;BME280;55625;47.072;22.192;2023-01-10T09:03:49;98898.91;;;7.16;100.00
68634;BME280;55625;47.072;22.192;2023-01-10T09:06:15;98905.34;;;7.17;100.00
68634;BME280;55625;47.072;22.192;2023-01-10T09:08:41;98910.88;;;7.21;100.00
68634;BME280;55625;47.072;22.192;2023-01-10T09:11:07;98912.91;;;7.20;100.00
68634;BME280;55625;47.072;22.192;2023-01-10T09:13:33;98913.34;;;7.19;100.00
68634;BME280;55625;47.072;22.192;2023-01-10T09:15:59;98933.91;;;7.19;100.00
68634;BME280;55625;47.072;22.192;2023-01-10T09:18:25;98935.47;;;7.20;100.00
68634;BME280;55625;47.072;22.192;2023-01-10T09:20:51;98928.59;;;7.21;100.00
68634;BME280;55625;47.072;22.192;2023-01-10T09:23:20;98919.34;;;7.21;100.00
68634;BME280;55625;47.072;22.192;2023-01-10T09:25:48;98924.97;;;7.21;100.00
68634;BME280;55625;47.072;22.192;2023-01-10T09:28:16;98933.44;;;7.21;100.00
68634;BME280;55625;47.072;22.192;2023-01-10T09:30:43;98930.63;;;7.21;100.00
68634;BME280;55625;47.072;22.192;2023-01-10T09:33:09;98934.56;;;7.23;100.00
68634;BME280;55625;47.072;22.192;2023-01-10T09:35:38;98939.75;;;7.25;100.00
68634;BME280;55625;47.072;22.192;2023-01-10T09:38:06;98949.81;;;7.26;100.00
68634;BME280;55625;47.072;22.192;2023-01-10T09:44:05;98958.16;;;7.29;100.00
68634;BME280;55625;47.072;22.192;2023-01-10T09:49:47;98960.69;;;7.40;100.00
68634;BME280;55625;47.072;22.192;2023-01-10T09:52:32;98965.06;;;7.41;100.00
68634;BME280;55625;47.072;22.192;2023-01-10T09:55:23;98971.84;;;7.43;100.00
68634;BME280;55625;47.072;22.192;2023-01-10T09:57:56;98971.72;;;7.47;100.00
68634;BME280;55625;47.072;22.192;2023-01-10T10:00:35;98971.63;;;7.51;100.00
68634;BME280;55625;47.072;22.192;2023-01-10T10:03:09;98962.69;;;7.52;100.00
68634;BME280;55625;47.072;22.192;2023-01-10T10:05:39;98968.69;;;7.54;100.00
68634;BME280;55625;47.072;22.192;2023-01-10T10:08:09;98966.19;;;7.56;100.00
68634;BME280;55625;47.072;22.192;2023-01-10T10:10:42;98948.81;;;7.58;100.00
68634;BME280;55625;47.072;22.192;2023-01-10T10:19:09;98944.28;;;7.60;100.00
68634;BME280;55625;47.072;22.192;2023-01-10T10:22:05;98955.91;;;7.62;100.00
68634;BME280;55625;47.072;22.192;2023-01-10T10:27:52;98974.34;;;7.67;100.00
68634;BME280;55625;47.072;22.192;2023-01-10T10:33:21;98967.13;;;7.66;100.00
68634;BME280;55625;47.072;22.192;2023-01-10T10:36:01;98974.81;;;7.65;100.00
68634;BME280;55625;47.072;22.192;2023-01-10T10:38:35;98971.97;;;7.65;100.00
68634;BME280;55625;47.072;22.192;2023-01-10T10:41:02;98971.97;;;7.65;100.00
68634;BME280;55625;47.072;22.192;2023-01-10T10:43:34;98970.72;;;7.66;100.00
68634;BME280;55625;47.072;22.192;2023-01-10T10:46:15;98974.34;;;7.67;100.00
68634;BME280;55625;47.072;22.192;2023-01-10T10:48:59;98970.72;;;7.66;100.00
68634;BME280;55625;47.072;22.192;2023-01-10T10:51:41;98975.94;;;7.68;100.00
68634;BME280;55625;47.072;22.192;2023-01-10T10:54:13;98974.69;;;7.69;100.00
68634;BME280;55625;47.072;22.192;2023-01-10T10:56:42;98988.34;;;7.70;100.00
68634;BME280;55625;47.072;22.192;2023-01-10T10:59:10;98983.81;;;7.73;100.00
68634;BME280;55625;47.072;22.192;2023-01-10T11:01:39;98981.34;;;7.75;100.00
68634;BME280;55625;47.072;22.192;2023-01-10T11:04:12;98982.47;;;7.77;100.00
68634;BME280;55625;47.072;22.192;2023-01-10T11:06:40;98985.28;;;7.77;100.00
68634;BME280;55625;47.072;22.192;2023-01-10T11:09:19;98982.13;;;7.75;100.00
68634;BME280;55625;47.072;22.192;2023-01-10T11:11:52;98981.34;;;7.75;100.00
68634;BME280;55625;47.072;22.192;2023-01-10T11:14:47;98985.41;;;7.74;100.00
68634;BME280;55625;47.072;22.192;2023-01-10T11:20:03;98998.16;;;7.78;100.00
68634;BME280;55625;47.072;22.192;2023-01-10T11:22:47;99001.00;;;7.78;100.00
68634;BME280;55625;47.072;22.192;2023-01-10T11:25:20;99000.66;;;7.76;100.00
68634;BME280;55625;47.072;22.192;2023-01-10T11:27:55;99010.03;;;7.73;100.00
68634;BME280;55625;47.072;22.192;2023-01-10T11:30:27;99008.47;;;7.72;100.00
68634;BME280;55625;47.072;22.192;2023-01-10T11:33:07;99007.31;;;7.70;100.00
68634;BME280;55625;47.072;22.192;2023-01-10T11:36:05;99004.97;;;7.68;100.00
68634;BME280;55625;47.072;22.192;2023-01-10T11:38:32;99010.59;;;7.68;100.00
68634;BME280;55625;47.072;22.192;2023-01-10T11:43:37;99018.16;;;7.71;100.00
68634;BME280;55625;47.072;22.192;2023-01-10T11:46:14;99023.38;;;7.73;100.00
68634;BME280;55625;47.072;22.192;2023-01-10T11:48:47;99022.13;;;7.74;100.00
68634;BME280;55625;47.072;22.192;2023-01-10T11:51:30;99019.31;;;7.74;100.00
68634;BME280;55625;47.072;22.192;2023-01-10T11:54:14;99019.31;;;7.74;100.00
68634;BME280;55625;47.072;22.192;2023-01-10T11:56:42;99016.47;;;7.74;100.00
68634;BME280;55625;47.072;22.192;2023-01-10T11:59:16;99018.06;;;7.75;100.00
68634;BME280;55625;47.072;22.192;2023-01-10T12:02:39;99024.84;;;7.77;100.00
68634;BME280;55625;47.072;22.192;2023-01-10T12:04:43;99027.66;;;7.77;100.00
68634;BME280;55625;47.072;22.192;2023-01-10T12:07:11;99027.66;;;7.77;100.00
68634;BME280;55625;47.072;22.192;2023-01-10T12:12:34;99030.81;;;7.67;100.00
68634;BME280;55625;47.072;22.192;2023-01-10T12:15:27;99035.75;;;7.63;100.00
68634;BME280;55625;47.072;22.192;2023-01-10T12:17:59;99039.03;;;7.61;100.00
68634;BME280;55625;47.072;22.192;2023-01-10T12:20:33;99049.22;;;7.59;100.00
68634;BME280;55625;47.072;22.192;2023-01-10T12:23:07;99049.31;;;7.55;100.00
68634;BME280;55625;47.072;22.192;2023-01-10T12:25:41;99056.78;;;7.62;100.00
68634;BME280;55625;47.072;22.192;2023-01-10T12:28:22;99057.09;;;7.51;100.00
68634;BME280;55625;47.072;22.192;2023-01-10T12:30:49;99058.81;;;7.48;100.00
68634;BME280;55625;47.072;22.192;2023-01-10T12:33:33;99052.81;;;7.46;100.00
68634;BME280;55625;47.072;22.192;2023-01-10T12:47:27;99079.06;;;7.31;100.00
68634;BME280;55625;47.072;22.192;2023-01-10T12:55:25;99075.22;;;7.25;100.00
68634;BME280;55625;47.072;22.192;2023-01-10T12:58:00;99076.47;;;7.24;100.00
68634;BME280;55625;47.072;22.192;2023-01-10T13:00:41;99061.13;;;7.25;100.00
68634;BME280;55625;47.072;22.192;2023-01-10T13:03:16;99070.38;;;7.25;100.00
68634;BME280;55625;47.072;22.192;2023-01-10T13:05:44;99072.28;;;7.28;100.00
68634;BME280;55625;47.072;22.192;2023-01-10T13:08:17;99070.59;;;7.31;100.00
68634;BME280;55625;47.072;22.192;2023-01-10T13:10:46;99069.03;;;7.30;100.00
68634;BME280;55625;47.072;22.192;2023-01-10T13:13:36;99084.25;;;7.32;100.00
68634;BME280;55625;47.072;22.192;2023-01-10T13:21:38;99092.69;;;7.20;100.00
68634;BME280;55625;47.072;22.192;2023-01-10T13:26:59;99109.16;;;7.08;100.00
68634;BME280;55625;47.072;22.192;2023-01-10T13:29:41;99111.28;;;7.04;100.00
68634;BME280;55625;47.072;22.192;2023-01-10T13:32:24;99115.41;;;7.00;100.00
68634;BME280;55625;47.072;22.192;2023-01-10T13:34:51;99118.69;;;6.98;100.00
68634;BME280;55625;47.072;22.192;2023-01-10T13:37:33;99125.66;;;6.94;100.00
68634;BME280;55625;47.072;22.192;2023-01-10T13:40:01;99124.16;;;6.89;100.00
68634;BME280;55625;47.072;22.192;2023-01-10T13:42:36;99130.59;;;6.90;100.00
68634;BME280;55625;47.072;22.192;2023-01-10T13:45:28;99128.91;;;6.92;100.00
68634;BME280;55625;47.072;22.192;2023-01-10T13:47:58;99136.00;;;6.84;100.00
68634;BME280;55625;47.072;22.192;2023-01-10T13:55:56;99147.03;;;6.78;100.00
68634;BME280;55625;47.072;22.192;2023-01-10T14:01:37;99153.81;;;6.81;100.00
68634;BME280;55625;47.072;22.192;2023-01-10T14:04:43;99156.53;;;6.84;100.00
68634;BME280;55625;47.072;22.192;2023-01-10T14:10:07;99166.41;;;6.76;100.00
68634;BME280;55625;47.072;22.192;2023-01-10T14:12:54;99163.66;;;6.73;100.00
68634;BME280;55625;47.072;22.192;2023-01-10T14:15:40;99169.81;;;6.68;100.00
68634;BME280;55625;47.072;22.192;2023-01-10T14:18:19;99180.66;;;6.69;100.00
68634;BME280;55625;47.072;22.192;2023-01-10T14:21:00;99173.88;;;6.67;100.00
68634;BME280;55625;47.072;22.192;2023-01-10T14:23:37;99184.38;;;6.66;100.00
68634;BME280;55625;47.072;22.192;2023-01-10T14:26:10;99183.56;;;6.66;100.00
68634;BME280;55625;47.072;22.192;2023-01-10T14:28:41;99186.03;;;6.64;100.00
68634;BME280;55625;47.072;22.192;2023-01-10T14:31:22;99188.88;;;6.64;100.00
68634;BME280;55625;47.072;22.192;2023-01-10T14:33:50;99193.34;;;6.61;100.00
68634;BME280;55625;47.072;22.192;2023-01-10T14:36:28;99186.47;;;6.62;100.00
68634;BME280;55625;47.072;22.192;2023-01-10T14:39:03;99199.00;;;6.61;100.00
68634;BME280;55625;47.072;22.192;2023-01-10T14:41:43;99189.75;;;6.61;100.00
68634;BME280;55625;47.072;22.192;2023-01-10T14:46:47;99191.41;;;6.58;100.00
68634;BME280;55625;47.072;22.192;2023-01-10T14:52:23;99199.63;;;6.52;100.00
68634;BME280;55625;47.072;22.192;2023-01-10T14:55:22;99194.78;;;6.53;100.00
68634;BME280;55625;47.072;22.192;2023-01-10T14:58:00;99205.25;;;6.52;100.00